sensor_id;sensor_type;location;lat;lon;timestamp;P1;durP1;ratioP1;P2;durP2;ratioP2
57443;SDS011;43289;52.962;6.196;2022-11-11T00:00:58;14.15;;;7.15;;
57443;SDS011;43289;52.962;6.196;2022-11-11T00:03:24;15.00;;;7.32;;
57443;SDS011;43289;52.962;6.196;2022-11-11T00:05:51;13.50;;;6.95;;
57443;SDS011;43289;52.962;6.196;2022-11-11T00:08:17;12.10;;;7.30;;
57443;SDS011;43289;52.962;6.196;2022-11-11T00:10:43;11.20;;;7.53;;
57443;SDS011;43289;52.962;6.196;2022-11-11T00:13:09;14.63;;;6.93;;
57443;SDS011;43289;52.962;6.196;2022-11-11T00:15:36;14.35;;;7.72;;
57443;SDS011;43289;52.962;6.196;2022-11-11T00:18:03;17.25;;;7.78;;
57443;SDS011;43289;52.962;6.196;2022-11-11T00:20:47;11.73;;;7.15;;
57443;SDS011;43289;52.962;6.196;2022-11-11T00:23:32;13.93;;;7.88;;
57443;SDS011;43289;52.962;6.196;2022-11-11T00:29:39;12.13;;;7.13;;
57443;SDS011;43289;52.962;6.196;2022-11-11T00:32:06;13.82;;;8.05;;
57443;SDS011;43289;52.962;6.196;2022-11-11T00:34:53;13.23;;;7.90;;
57443;SDS011;43289;52.962;6.196;2022-11-11T00:41:01;12.38;;;7.70;;
57443;SDS011;43289;52.962;6.196;2022-11-11T00:43:27;15.38;;;7.82;;
57443;SDS011;43289;52.962;6.196;2022-11-11T00:45:53;15.68;;;8.23;;
57443;SDS011;43289;52.962;6.196;2022-11-11T00:51:24;13.48;;;7.63;;
57443;SDS011;43289;52.962;6.196;2022-11-11T00:53:50;16.30;;;8.18;;
57443;SDS011;43289;52.962;6.196;2022-11-11T00:56:16;16.08;;;8.52;;
57443;SDS011;43289;52.962;6.196;2022-11-11T00:58:42;13.82;;;7.90;;
57443;SDS011;43289;52.962;6.196;2022-11-11T01:01:08;20.65;;;8.18;;
57443;SDS011;43289;52.962;6.196;2022-11-11T01:03:34;14.68;;;8.32;;
57443;SDS011;43289;52.962;6.196;2022-11-11T01:06:00;13.20;;;8.65;;
57443;SDS011;43289;52.962;6.196;2022-11-11T01:08:27;13.98;;;8.25;;
57443;SDS011;43289;52.962;6.196;2022-11-11T01:10:53;12.52;;;8.23;;
57443;SDS011;43289;52.962;6.196;2022-11-11T01:13:21;13.85;;;8.05;;
57443;SDS011;43289;52.962;6.196;2022-11-11T01:15:48;13.80;;;8.02;;
57443;SDS011;43289;52.962;6.196;2022-11-11T01:18:15;13.48;;;7.85;;
57443;SDS011;43289;52.962;6.196;2022-11-11T01:20:42;14.20;;;8.40;;
57443;SDS011;43289;52.962;6.196;2022-11-11T01:23:09;15.95;;;9.10;;
57443;SDS011;43289;52.962;6.196;2022-11-11T01:25:36;11.15;;;8.05;;
57443;SDS011;43289;52.962;6.196;2022-11-11T01:28:02;16.25;;;8.05;;
57443;SDS011;43289;52.962;6.196;2022-11-11T01:30:30;15.18;;;7.70;;
57443;SDS011;43289;52.962;6.196;2022-11-11T01:32:56;12.98;;;7.82;;
57443;SDS011;43289;52.962;6.196;2022-11-11T01:35:22;13.93;;;8.52;;
57443;SDS011;43289;52.962;6.196;2022-11-11T01:37:48;13.93;;;8.52;;
57443;SDS011;43289;52.962;6.196;2022-11-11T01:40:14;14.32;;;8.18;;
57443;SDS011;43289;52.962;6.196;2022-11-11T01:47:57;15.48;;;8.63;;
57443;SDS011;43289;52.962;6.196;2022-11-11T01:50:42;16.88;;;9.13;;
57443;SDS011;43289;52.962;6.196;2022-11-11T01:53:08;17.25;;;9.45;;
57443;SDS011;43289;52.962;6.196;2022-11-11T01:55:34;16.13;;;8.82;;
57443;SDS011;43289;52.962;6.196;2022-11-11T01:58:01;14.18;;;9.93;;
57443;SDS011;43289;52.962;6.196;2022-11-11T02:00:28;16.05;;;9.45;;
57443;SDS011;43289;52.962;6.196;2022-11-11T02:02:56;14.82;;;10.70;;
57443;SDS011;43289;52.962;6.196;2022-11-11T02:05:23;13.23;;;9.43;;
57443;SDS011;43289;52.962;6.196;2022-11-11T02:08:14;17.80;;;10.18;;
57443;SDS011;43289;52.962;6.196;2022-11-11T02:10:56;17.10;;;10.25;;
57443;SDS011;43289;52.962;6.196;2022-11-11T02:13:23;22.92;;;10.32;;
57443;SDS011;43289;52.962;6.196;2022-11-11T02:16:08;20.80;;;12.30;;
57443;SDS011;43289;52.962;6.196;2022-11-11T02:18:34;17.08;;;10.75;;
57443;SDS011;43289;52.962;6.196;2022-11-11T02:21:00;17.27;;;11.60;;
57443;SDS011;43289;52.962;6.196;2022-11-11T02:26:11;14.63;;;10.73;;
57443;SDS011;43289;52.962;6.196;2022-11-11T02:28:38;19.45;;;13.15;;
57443;SDS011;43289;52.962;6.196;2022-11-11T02:31:06;17.95;;;12.00;;
57443;SDS011;43289;52.962;6.196;2022-11-11T02:33:33;21.80;;;13.32;;
57443;SDS011;43289;52.962;6.196;2022-11-11T02:35:59;19.65;;;13.30;;
57443;SDS011;43289;52.962;6.196;2022-11-11T02:38:26;17.35;;;12.35;;
57443;SDS011;43289;52.962;6.196;2022-11-11T02:40:53;18.85;;;13.70;;
57443;SDS011;43289;52.962;6.196;2022-11-11T02:43:38;19.67;;;12.93;;
57443;SDS011;43289;52.962;6.196;2022-11-11T02:46:05;24.70;;;15.20;;
57443;SDS011;43289;52.962;6.196;2022-11-11T02:48:31;26.38;;;14.30;;
57443;SDS011;43289;52.962;6.196;2022-11-11T02:50:57;22.08;;;14.40;;
57443;SDS011;43289;52.962;6.196;2022-11-11T02:53:23;17.20;;;12.15;;
57443;SDS011;43289;52.962;6.196;2022-11-11T02:55:49;20.63;;;15.02;;
57443;SDS011;43289;52.962;6.196;2022-11-11T02:58:15;24.42;;;15.98;;
57443;SDS011;43289;52.962;6.196;2022-11-11T03:00:41;20.05;;;14.45;;
57443;SDS011;43289;52.962;6.196;2022-11-11T03:03:10;22.83;;;14.13;;
57443;SDS011;43289;52.962;6.196;2022-11-11T03:05:36;21.42;;;14.02;;
57443;SDS011;43289;52.962;6.196;2022-11-11T03:08:02;21.48;;;15.32;;
57443;SDS011;43289;52.962;6.196;2022-11-11T03:10:28;18.23;;;13.57;;
57443;SDS011;43289;52.962;6.196;2022-11-11T03:12:55;21.67;;;15.40;;
57443;SDS011;43289;52.962;6.196;2022-11-11T03:15:21;19.55;;;13.98;;
57443;SDS011;43289;52.962;6.196;2022-11-11T03:17:47;20.52;;;15.02;;
57443;SDS011;43289;52.962;6.196;2022-11-11T03:23:16;23.88;;;15.70;;
57443;SDS011;43289;52.962;6.196;2022-11-11T03:25:43;25.13;;;15.13;;
57443;SDS011;43289;52.962;6.196;2022-11-11T03:30:36;21.08;;;15.38;;
57443;SDS011;43289;52.962;6.196;2022-11-11T03:33:02;23.25;;;14.30;;
57443;SDS011;43289;52.962;6.196;2022-11-11T03:35:29;23.70;;;15.00;;
57443;SDS011;43289;52.962;6.196;2022-11-11T03:37:55;22.75;;;15.35;;
57443;SDS011;43289;52.962;6.196;2022-11-11T03:40:40;26.40;;;15.40;;
57443;SDS011;43289;52.962;6.196;2022-11-11T03:43:06;24.30;;;15.90;;
57443;SDS011;43289;52.962;6.196;2022-11-11T03:45:32;23.27;;;15.20;;
57443;SDS011;43289;52.962;6.196;2022-11-11T03:47:58;21.60;;;16.23;;
57443;SDS011;43289;52.962;6.196;2022-11-11T03:50:24;20.70;;;15.93;;
57443;SDS011;43289;52.962;6.196;2022-11-11T03:52:50;23.98;;;16.15;;
57443;SDS011;43289;52.962;6.196;2022-11-11T03:55:16;25.50;;;16.92;;
57443;SDS011;43289;52.962;6.196;2022-11-11T03:57:43;21.20;;;15.95;;
57443;SDS011;43289;52.962;6.196;2022-11-11T04:00:13;24.98;;;16.77;;
57443;SDS011;43289;52.962;6.196;2022-11-11T04:02:40;24.17;;;16.35;;
57443;SDS011;43289;52.962;6.196;2022-11-11T04:05:24;24.60;;;16.77;;
57443;SDS011;43289;52.962;6.196;2022-11-11T04:08:10;26.13;;;17.08;;
57443;SDS011;43289;52.962;6.196;2022-11-11T04:10:55;24.42;;;16.95;;
57443;SDS011;43289;52.962;6.196;2022-11-11T04:13:22;24.13;;;16.63;;
57443;SDS011;43289;52.962;6.196;2022-11-11T04:16:06;23.65;;;16.33;;
57443;SDS011;43289;52.962;6.196;2022-11-11T04:18:33;24.15;;;17.40;;
57443;SDS011;43289;52.962;6.196;2022-11-11T04:21:18;24.00;;;16.55;;
57443;SDS011;43289;52.962;6.196;2022-11-11T04:24:03;29.45;;;19.17;;
57443;SDS011;43289;52.962;6.196;2022-11-11T04:26:48;25.87;;;17.30;;
57443;SDS011;43289;52.962;6.196;2022-11-11T04:29:14;24.73;;;17.13;;
57443;SDS011;43289;52.962;6.196;2022-11-11T04:31:52;30.92;;;18.80;;
57443;SDS011;43289;52.962;6.196;2022-11-11T04:34:37;23.90;;;15.33;;
57443;SDS011;43289;52.962;6.196;2022-11-11T04:37:22;26.60;;;17.70;;
57443;SDS011;43289;52.962;6.196;2022-11-11T04:39:48;28.15;;;18.80;;
57443;SDS011;43289;52.962;6.196;2022-11-11T04:42:33;27.05;;;18.27;;
57443;SDS011;43289;52.962;6.196;2022-11-11T04:44:59;27.27;;;19.45;;
57443;SDS011;43289;52.962;6.196;2022-11-11T04:50:19;26.05;;;16.85;;
57443;SDS011;43289;52.962;6.196;2022-11-11T04:52:45;27.10;;;18.30;;
57443;SDS011;43289;52.962;6.196;2022-11-11T04:55:28;29.67;;;18.63;;
57443;SDS011;43289;52.962;6.196;2022-11-11T04:58:12;27.00;;;18.55;;
57443;SDS011;43289;52.962;6.196;2022-11-11T05:00:57;29.95;;;18.67;;
57443;SDS011;43289;52.962;6.196;2022-11-11T05:03:23;28.88;;;18.10;;
57443;SDS011;43289;52.962;6.196;2022-11-11T05:05:50;28.55;;;18.55;;
57443;SDS011;43289;52.962;6.196;2022-11-11T05:08:35;30.05;;;18.92;;
57443;SDS011;43289;52.962;6.196;2022-11-11T05:11:24;26.15;;;18.23;;
57443;SDS011;43289;52.962;6.196;2022-11-11T05:13:51;28.38;;;17.10;;
57443;SDS011;43289;52.962;6.196;2022-11-11T05:16:37;25.85;;;17.73;;
57443;SDS011;43289;52.962;6.196;2022-11-11T05:19:22;24.83;;;17.45;;
57443;SDS011;43289;52.962;6.196;2022-11-11T05:24:35;25.40;;;17.17;;
57443;SDS011;43289;52.962;6.196;2022-11-11T05:27:19;24.55;;;16.52;;
57443;SDS011;43289;52.962;6.196;2022-11-11T05:29:45;28.77;;;18.20;;
57443;SDS011;43289;52.962;6.196;2022-11-11T05:32:18;22.92;;;16.92;;
57443;SDS011;43289;52.962;6.196;2022-11-11T05:37:30;29.63;;;18.00;;
57443;SDS011;43289;52.962;6.196;2022-11-11T05:39:56;28.35;;;16.95;;
57443;SDS011;43289;52.962;6.196;2022-11-11T05:45:45;28.77;;;18.63;;
57443;SDS011;43289;52.962;6.196;2022-11-11T05:48:11;29.67;;;18.15;;
57443;SDS011;43289;52.962;6.196;2022-11-11T05:50:37;29.73;;;18.00;;
57443;SDS011;43289;52.962;6.196;2022-11-11T05:53:06;29.23;;;17.92;;
57443;SDS011;43289;52.962;6.196;2022-11-11T05:55:32;26.10;;;17.25;;
57443;SDS011;43289;52.962;6.196;2022-11-11T05:57:58;26.48;;;18.52;;
57443;SDS011;43289;52.962;6.196;2022-11-11T06:00:24;29.63;;;19.48;;
57443;SDS011;43289;52.962;6.196;2022-11-11T06:02:50;24.38;;;17.98;;
57443;SDS011;43289;52.962;6.196;2022-11-11T06:05:16;29.20;;;18.08;;
57443;SDS011;43289;52.962;6.196;2022-11-11T06:07:42;28.83;;;18.83;;
57443;SDS011;43289;52.962;6.196;2022-11-11T06:10:08;30.88;;;19.23;;
57443;SDS011;43289;52.962;6.196;2022-11-11T06:12:53;26.48;;;19.17;;
57443;SDS011;43289;52.962;6.196;2022-11-11T06:15:38;28.42;;;17.58;;
57443;SDS011;43289;52.962;6.196;2022-11-11T06:18:05;26.92;;;19.67;;
57443;SDS011;43289;52.962;6.196;2022-11-11T06:20:31;30.83;;;19.45;;
57443;SDS011;43289;52.962;6.196;2022-11-11T06:23:00;29.75;;;18.77;;
57443;SDS011;43289;52.962;6.196;2022-11-11T06:25:30;27.90;;;19.50;;
57443;SDS011;43289;52.962;6.196;2022-11-11T06:28:15;29.05;;;18.65;;
57443;SDS011;43289;52.962;6.196;2022-11-11T06:30:41;29.42;;;20.35;;
57443;SDS011;43289;52.962;6.196;2022-11-11T06:33:08;29.88;;;19.67;;
57443;SDS011;43289;52.962;6.196;2022-11-11T06:35:34;26.60;;;19.00;;
57443;SDS011;43289;52.962;6.196;2022-11-11T06:38:01;27.73;;;18.55;;
57443;SDS011;43289;52.962;6.196;2022-11-11T06:40:27;29.02;;;20.63;;
57443;SDS011;43289;52.962;6.196;2022-11-11T06:42:55;31.33;;;19.52;;
57443;SDS011;43289;52.962;6.196;2022-11-11T06:45:37;30.80;;;19.75;;
57443;SDS011;43289;52.962;6.196;2022-11-11T06:48:03;25.27;;;18.73;;
57443;SDS011;43289;52.962;6.196;2022-11-11T06:50:32;28.77;;;17.60;;
57443;SDS011;43289;52.962;6.196;2022-11-11T06:53:05;27.75;;;19.75;;
57443;SDS011;43289;52.962;6.196;2022-11-11T06:55:32;28.95;;;19.10;;
57443;SDS011;43289;52.962;6.196;2022-11-11T06:58:08;26.90;;;18.20;;
57443;SDS011;43289;52.962;6.196;2022-11-11T07:00:35;30.85;;;21.08;;
57443;SDS011;43289;52.962;6.196;2022-11-11T07:03:01;28.17;;;18.98;;
57443;SDS011;43289;52.962;6.196;2022-11-11T07:05:27;26.55;;;19.05;;
57443;SDS011;43289;52.962;6.196;2022-11-11T07:07:53;27.67;;;17.33;;
57443;SDS011;43289;52.962;6.196;2022-11-11T07:10:20;29.42;;;19.45;;
57443;SDS011;43289;52.962;6.196;2022-11-11T07:12:46;29.75;;;18.48;;
57443;SDS011;43289;52.962;6.196;2022-11-11T07:15:12;25.85;;;18.02;;
57443;SDS011;43289;52.962;6.196;2022-11-11T07:17:38;30.65;;;18.27;;
57443;SDS011;43289;52.962;6.196;2022-11-11T07:20:04;25.88;;;17.45;;
57443;SDS011;43289;52.962;6.196;2022-11-11T07:22:34;27.10;;;18.23;;
57443;SDS011;43289;52.962;6.196;2022-11-11T07:25:00;26.92;;;17.95;;
57443;SDS011;43289;52.962;6.196;2022-11-11T07:27:26;32.67;;;18.40;;
57443;SDS011;43289;52.962;6.196;2022-11-11T07:29:52;29.52;;;18.20;;
57443;SDS011;43289;52.962;6.196;2022-11-11T07:32:18;25.27;;;17.88;;
57443;SDS011;43289;52.962;6.196;2022-11-11T07:34:44;24.40;;;16.52;;
57443;SDS011;43289;52.962;6.196;2022-11-11T07:37:10;24.15;;;18.42;;
57443;SDS011;43289;52.962;6.196;2022-11-11T07:39:36;28.42;;;18.20;;
57443;SDS011;43289;52.962;6.196;2022-11-11T07:42:02;28.45;;;18.25;;
57443;SDS011;43289;52.962;6.196;2022-11-11T07:44:28;30.88;;;18.13;;
57443;SDS011;43289;52.962;6.196;2022-11-11T07:46:55;26.55;;;17.23;;
57443;SDS011;43289;52.962;6.196;2022-11-11T07:49:21;25.38;;;17.17;;
57443;SDS011;43289;52.962;6.196;2022-11-11T07:51:47;26.65;;;17.60;;
57443;SDS011;43289;52.962;6.196;2022-11-11T07:54:13;23.13;;;17.23;;
57443;SDS011;43289;52.962;6.196;2022-11-11T07:56:39;25.73;;;17.63;;
57443;SDS011;43289;52.962;6.196;2022-11-11T07:59:05;25.00;;;17.48;;
57443;SDS011;43289;52.962;6.196;2022-11-11T08:01:31;26.23;;;16.90;;
57443;SDS011;43289;52.962;6.196;2022-11-11T08:03:57;28.27;;;18.23;;
57443;SDS011;43289;52.962;6.196;2022-11-11T08:06:23;27.52;;;17.83;;
57443;SDS011;43289;52.962;6.196;2022-11-11T08:08:49;27.10;;;17.75;;
57443;SDS011;43289;52.962;6.196;2022-11-11T08:11:15;23.65;;;15.23;;
57443;SDS011;43289;52.962;6.196;2022-11-11T08:13:42;24.13;;;16.13;;
57443;SDS011;43289;52.962;6.196;2022-11-11T08:16:12;25.13;;;15.98;;
57443;SDS011;43289;52.962;6.196;2022-11-11T08:18:39;26.17;;;16.27;;
57443;SDS011;43289;52.962;6.196;2022-11-11T08:21:05;23.10;;;16.08;;
57443;SDS011;43289;52.962;6.196;2022-11-11T08:23:31;21.75;;;15.52;;
57443;SDS011;43289;52.962;6.196;2022-11-11T08:26:02;24.95;;;15.30;;
57443;SDS011;43289;52.962;6.196;2022-11-11T08:28:28;25.42;;;16.23;;
57443;SDS011;43289;52.962;6.196;2022-11-11T08:30:57;24.23;;;16.08;;
57443;SDS011;43289;52.962;6.196;2022-11-11T08:33:23;22.50;;;15.55;;
57443;SDS011;43289;52.962;6.196;2022-11-11T08:35:49;25.25;;;15.30;;
57443;SDS011;43289;52.962;6.196;2022-11-11T08:38:18;23.13;;;14.75;;
57443;SDS011;43289;52.962;6.196;2022-11-11T08:40:44;25.08;;;15.88;;
57443;SDS011;43289;52.962;6.196;2022-11-11T08:43:10;21.73;;;14.98;;
57443;SDS011;43289;52.962;6.196;2022-11-11T08:45:36;23.48;;;15.65;;
57443;SDS011;43289;52.962;6.196;2022-11-11T08:48:02;22.27;;;14.95;;
57443;SDS011;43289;52.962;6.196;2022-11-11T08:50:29;20.95;;;14.45;;
57443;SDS011;43289;52.962;6.196;2022-11-11T08:52:55;19.88;;;14.50;;
57443;SDS011;43289;52.962;6.196;2022-11-11T08:55:21;22.08;;;14.63;;
57443;SDS011;43289;52.962;6.196;2022-11-11T08:57:47;23.77;;;15.23;;
57443;SDS011;43289;52.962;6.196;2022-11-11T09:00:13;28.13;;;15.15;;
57443;SDS011;43289;52.962;6.196;2022-11-11T09:02:39;24.45;;;15.63;;
57443;SDS011;43289;52.962;6.196;2022-11-11T09:05:05;20.42;;;14.07;;
57443;SDS011;43289;52.962;6.196;2022-11-11T09:07:31;22.33;;;14.18;;
57443;SDS011;43289;52.962;6.196;2022-11-11T09:09:57;19.88;;;13.60;;
57443;SDS011;43289;52.962;6.196;2022-11-11T09:12:24;19.48;;;12.70;;
57443;SDS011;43289;52.962;6.196;2022-11-11T09:14:50;27.88;;;14.60;;
57443;SDS011;43289;52.962;6.196;2022-11-11T09:17:16;21.10;;;14.65;;
57443;SDS011;43289;52.962;6.196;2022-11-11T09:19:42;19.80;;;14.27;;
57443;SDS011;43289;52.962;6.196;2022-11-11T09:22:08;19.25;;;14.95;;
57443;SDS011;43289;52.962;6.196;2022-11-11T09:24:34;21.13;;;14.27;;
57443;SDS011;43289;52.962;6.196;2022-11-11T09:27:00;19.77;;;13.88;;
57443;SDS011;43289;52.962;6.196;2022-11-11T09:29:26;22.98;;;14.55;;
57443;SDS011;43289;52.962;6.196;2022-11-11T09:31:52;24.38;;;14.70;;
57443;SDS011;43289;52.962;6.196;2022-11-11T09:34:18;24.63;;;14.25;;
57443;SDS011;43289;52.962;6.196;2022-11-11T09:36:44;24.30;;;14.35;;
57443;SDS011;43289;52.962;6.196;2022-11-11T09:39:10;20.90;;;14.50;;
57443;SDS011;43289;52.962;6.196;2022-11-11T09:41:39;19.30;;;13.10;;
57443;SDS011;43289;52.962;6.196;2022-11-11T09:44:14;25.73;;;14.68;;
57443;SDS011;43289;52.962;6.196;2022-11-11T09:47:27;25.27;;;14.45;;
57443;SDS011;43289;52.962;6.196;2022-11-11T09:49:37;20.63;;;14.07;;
57443;SDS011;43289;52.962;6.196;2022-11-11T09:52:16;20.17;;;11.95;;
57443;SDS011;43289;52.962;6.196;2022-11-11T09:54:47;21.15;;;15.57;;
57443;SDS011;43289;52.962;6.196;2022-11-11T09:57:17;19.60;;;13.40;;
57443;SDS011;43289;52.962;6.196;2022-11-11T09:59:53;18.48;;;13.52;;
57443;SDS011;43289;52.962;6.196;2022-11-11T10:02:32;22.88;;;14.23;;
57443;SDS011;43289;52.962;6.196;2022-11-11T10:05:02;20.90;;;13.95;;
57443;SDS011;43289;52.962;6.196;2022-11-11T10:07:39;19.48;;;13.20;;
57443;SDS011;43289;52.962;6.196;2022-11-11T10:12:37;29.60;;;13.02;;
57443;SDS011;43289;52.962;6.196;2022-11-11T10:15:09;18.00;;;13.73;;
57443;SDS011;43289;52.962;6.196;2022-11-11T10:17:37;20.92;;;13.65;;
57443;SDS011;43289;52.962;6.196;2022-11-11T10:23:13;19.58;;;13.75;;
57443;SDS011;43289;52.962;6.196;2022-11-11T10:25:36;19.70;;;13.30;;
57443;SDS011;43289;52.962;6.196;2022-11-11T10:28:07;19.58;;;12.77;;
57443;SDS011;43289;52.962;6.196;2022-11-11T10:30:34;21.10;;;13.73;;
57443;SDS011;43289;52.962;6.196;2022-11-11T10:33:05;19.05;;;12.93;;
57443;SDS011;43289;52.962;6.196;2022-11-11T10:35:34;24.73;;;13.90;;
57443;SDS011;43289;52.962;6.196;2022-11-11T10:40:53;18.42;;;12.70;;
57443;SDS011;43289;52.962;6.196;2022-11-11T10:43:21;19.05;;;13.18;;
57443;SDS011;43289;52.962;6.196;2022-11-11T10:51:01;18.40;;;12.85;;
57443;SDS011;43289;52.962;6.196;2022-11-11T10:53:39;17.48;;;13.80;;
57443;SDS011;43289;52.962;6.196;2022-11-11T10:56:16;20.05;;;14.20;;
57443;SDS011;43289;52.962;6.196;2022-11-11T11:01:16;19.77;;;12.30;;
57443;SDS011;43289;52.962;6.196;2022-11-11T11:03:46;17.95;;;12.88;;
57443;SDS011;43289;52.962;6.196;2022-11-11T11:06:17;17.27;;;11.82;;
57443;SDS011;43289;52.962;6.196;2022-11-11T11:08:45;19.83;;;12.68;;
57443;SDS011;43289;52.962;6.196;2022-11-11T11:11:58;18.67;;;13.05;;
57443;SDS011;43289;52.962;6.196;2022-11-11T11:14:02;18.67;;;12.35;;
57443;SDS011;43289;52.962;6.196;2022-11-11T11:16:35;19.40;;;11.48;;
57443;SDS011;43289;52.962;6.196;2022-11-11T11:19:16;18.83;;;12.10;;
57443;SDS011;43289;52.962;6.196;2022-11-11T11:24:17;18.63;;;13.50;;
57443;SDS011;43289;52.962;6.196;2022-11-11T11:26:44;17.35;;;12.48;;
57443;SDS011;43289;52.962;6.196;2022-11-11T11:29:11;17.17;;;12.07;;
57443;SDS011;43289;52.962;6.196;2022-11-11T11:31:38;18.25;;;12.15;;
57443;SDS011;43289;52.962;6.196;2022-11-11T11:34:05;16.02;;;10.93;;
57443;SDS011;43289;52.962;6.196;2022-11-11T11:36:31;18.38;;;12.63;;
57443;SDS011;43289;52.962;6.196;2022-11-11T11:38:57;17.60;;;11.63;;
57443;SDS011;43289;52.962;6.196;2022-11-11T11:41:41;15.48;;;10.75;;
57443;SDS011;43289;52.962;6.196;2022-11-11T11:46:54;17.88;;;11.30;;
57443;SDS011;43289;52.962;6.196;2022-11-11T11:54:58;21.42;;;12.85;;
57443;SDS011;43289;52.962;6.196;2022-11-11T12:00:15;16.30;;;11.55;;
57443;SDS011;43289;52.962;6.196;2022-11-11T12:02:55;18.05;;;12.52;;
57443;SDS011;43289;52.962;6.196;2022-11-11T12:05:33;18.70;;;12.93;;
57443;SDS011;43289;52.962;6.196;2022-11-11T12:08:20;19.13;;;10.73;;
57443;SDS011;43289;52.962;6.196;2022-11-11T12:10:53;19.98;;;12.63;;
57443;SDS011;43289;52.962;6.196;2022-11-11T12:21:21;15.60;;;11.05;;
57443;SDS011;43289;52.962;6.196;2022-11-11T12:24:07;19.15;;;13.27;;
57443;SDS011;43289;52.962;6.196;2022-11-11T12:26:39;18.58;;;12.63;;
57443;SDS011;43289;52.962;6.196;2022-11-11T12:29:09;17.20;;;12.20;;
57443;SDS011;43289;52.962;6.196;2022-11-11T12:37:00;15.60;;;11.38;;
57443;SDS011;43289;52.962;6.196;2022-11-11T12:42:21;22.67;;;11.68;;
57443;SDS011;43289;52.962;6.196;2022-11-11T12:45:06;16.65;;;11.38;;
57443;SDS011;43289;52.962;6.196;2022-11-11T12:47:53;18.38;;;12.27;;
57443;SDS011;43289;52.962;6.196;2022-11-11T12:50:23;18.85;;;11.93;;
57443;SDS011;43289;52.962;6.196;2022-11-11T12:58:23;17.15;;;11.57;;
57443;SDS011;43289;52.962;6.196;2022-11-11T13:03:37;16.90;;;11.82;;
57443;SDS011;43289;52.962;6.196;2022-11-11T13:08:56;17.85;;;11.80;;
57443;SDS011;43289;52.962;6.196;2022-11-11T13:16:30;17.92;;;11.93;;
57443;SDS011;43289;52.962;6.196;2022-11-11T13:18:57;19.23;;;12.55;;
57443;SDS011;43289;52.962;6.196;2022-11-11T13:21:29;20.13;;;12.18;;
57443;SDS011;43289;52.962;6.196;2022-11-11T13:23:56;16.85;;;12.00;;
57443;SDS011;43289;52.962;6.196;2022-11-11T13:26:24;21.58;;;12.90;;
57443;SDS011;43289;52.962;6.196;2022-11-11T13:28:52;17.83;;;11.85;;
57443;SDS011;43289;52.962;6.196;2022-11-11T13:31:21;19.60;;;12.38;;
57443;SDS011;43289;52.962;6.196;2022-11-11T13:33:50;17.88;;;13.15;;
57443;SDS011;43289;52.962;6.196;2022-11-11T13:36:22;22.90;;;13.68;;
57443;SDS011;43289;52.962;6.196;2022-11-11T13:55:27;20.48;;;12.45;;
57443;SDS011;43289;52.962;6.196;2022-11-11T13:57:54;17.67;;;12.05;;
57443;SDS011;43289;52.962;6.196;2022-11-11T14:02:46;19.38;;;12.73;;
57443;SDS011;43289;52.962;6.196;2022-11-11T14:12:52;17.08;;;12.27;;
57443;SDS011;43289;52.962;6.196;2022-11-11T14:20:40;16.95;;;11.18;;
57443;SDS011;43289;52.962;6.196;2022-11-11T14:25:49;19.65;;;13.15;;
57443;SDS011;43289;52.962;6.196;2022-11-11T14:28:26;18.75;;;12.02;;
57443;SDS011;43289;52.962;6.196;2022-11-11T14:30:55;16.90;;;11.05;;
57443;SDS011;43289;52.962;6.196;2022-11-11T14:33:41;18.65;;;12.82;;
57443;SDS011;43289;52.962;6.196;2022-11-11T14:36:48;17.13;;;11.82;;
57443;SDS011;43289;52.962;6.196;2022-11-11T14:41:50;19.92;;;13.38;;
57443;SDS011;43289;52.962;6.196;2022-11-11T14:49:46;17.05;;;12.68;;
57443;SDS011;43289;52.962;6.196;2022-11-11T14:55:03;18.35;;;12.57;;
57443;SDS011;43289;52.962;6.196;2022-11-11T14:57:43;18.13;;;12.75;;
57443;SDS011;43289;52.962;6.196;2022-11-11T15:02:46;20.02;;;13.15;;
57443;SDS011;43289;52.962;6.196;2022-11-11T15:05:16;21.42;;;14.85;;
57443;SDS011;43289;52.962;6.196;2022-11-11T15:07:58;20.50;;;13.68;;
57443;SDS011;43289;52.962;6.196;2022-11-11T15:10:30;21.80;;;13.45;;
57443;SDS011;43289;52.962;6.196;2022-11-11T15:15:32;22.80;;;14.00;;
57443;SDS011;43289;52.962;6.196;2022-11-11T15:18:03;18.92;;;13.02;;
57443;SDS011;43289;52.962;6.196;2022-11-11T15:20:50;21.20;;;14.13;;
57443;SDS011;43289;52.962;6.196;2022-11-11T15:26:05;19.38;;;13.02;;
57443;SDS011;43289;52.962;6.196;2022-11-11T15:28:55;22.92;;;13.65;;
57443;SDS011;43289;52.962;6.196;2022-11-11T15:31:32;19.88;;;13.30;;
57443;SDS011;43289;52.962;6.196;2022-11-11T15:34:15;21.00;;;14.35;;
57443;SDS011;43289;52.962;6.196;2022-11-11T15:39:20;19.63;;;12.85;;
57443;SDS011;43289;52.962;6.196;2022-11-11T15:41:47;23.13;;;14.15;;
57443;SDS011;43289;52.962;6.196;2022-11-11T15:44:18;19.85;;;14.35;;
57443;SDS011;43289;52.962;6.196;2022-11-11T15:46:46;18.67;;;13.45;;
57443;SDS011;43289;52.962;6.196;2022-11-11T15:51:57;26.23;;;14.48;;
57443;SDS011;43289;52.962;6.196;2022-11-11T15:54:23;22.30;;;15.15;;
57443;SDS011;43289;52.962;6.196;2022-11-11T15:56:50;22.00;;;16.08;;
57443;SDS011;43289;52.962;6.196;2022-11-11T15:59:22;23.83;;;14.40;;
57443;SDS011;43289;52.962;6.196;2022-11-11T16:01:48;21.83;;;14.13;;
57443;SDS011;43289;52.962;6.196;2022-11-11T16:04:16;22.65;;;15.25;;
57443;SDS011;43289;52.962;6.196;2022-11-11T16:06:44;23.02;;;15.77;;
57443;SDS011;43289;52.962;6.196;2022-11-11T16:09:11;22.05;;;15.30;;
57443;SDS011;43289;52.962;6.196;2022-11-11T16:11:38;22.13;;;15.43;;
57443;SDS011;43289;52.962;6.196;2022-11-11T16:14:04;21.77;;;15.15;;
57443;SDS011;43289;52.962;6.196;2022-11-11T16:16:32;24.92;;;16.13;;
57443;SDS011;43289;52.962;6.196;2022-11-11T16:23:51;21.20;;;14.55;;
57443;SDS011;43289;52.962;6.196;2022-11-11T16:26:17;21.48;;;16.00;;
57443;SDS011;43289;52.962;6.196;2022-11-11T16:28:51;22.45;;;15.77;;
57443;SDS011;43289;52.962;6.196;2022-11-11T16:33:59;20.85;;;16.10;;
57443;SDS011;43289;52.962;6.196;2022-11-11T16:36:25;19.15;;;13.05;;
57443;SDS011;43289;52.962;6.196;2022-11-11T16:38:51;20.30;;;13.27;;
57443;SDS011;43289;52.962;6.196;2022-11-11T16:41:29;19.75;;;14.35;;
57443;SDS011;43289;52.962;6.196;2022-11-11T16:43:56;23.83;;;15.50;;
57443;SDS011;43289;52.962;6.196;2022-11-11T16:48:57;21.15;;;14.13;;
57443;SDS011;43289;52.962;6.196;2022-11-11T16:51:24;20.55;;;14.25;;
57443;SDS011;43289;52.962;6.196;2022-11-11T16:58:55;26.45;;;15.10;;
57443;SDS011;43289;52.962;6.196;2022-11-11T17:01:23;20.67;;;13.57;;
57443;SDS011;43289;52.962;6.196;2022-11-11T17:03:52;21.40;;;14.48;;
57443;SDS011;43289;52.962;6.196;2022-11-11T17:06:19;22.35;;;16.35;;
57443;SDS011;43289;52.962;6.196;2022-11-11T17:08:45;24.20;;;14.95;;
57443;SDS011;43289;52.962;6.196;2022-11-11T17:13:56;21.63;;;15.07;;
57443;SDS011;43289;52.962;6.196;2022-11-11T17:16:22;24.38;;;14.23;;
57443;SDS011;43289;52.962;6.196;2022-11-11T17:18:48;27.17;;;14.32;;
57443;SDS011;43289;52.962;6.196;2022-11-11T17:21:14;21.25;;;14.30;;
57443;SDS011;43289;52.962;6.196;2022-11-11T17:23:40;21.15;;;14.85;;
57443;SDS011;43289;52.962;6.196;2022-11-11T17:26:06;22.30;;;15.07;;
57443;SDS011;43289;52.962;6.196;2022-11-11T17:28:33;22.15;;;13.73;;
57443;SDS011;43289;52.962;6.196;2022-11-11T17:31:06;20.95;;;15.20;;
57443;SDS011;43289;52.962;6.196;2022-11-11T17:33:32;21.08;;;14.77;;